createdAt,value
2023-10-04T00:01:48.942Z,0.60
2023-10-04T00:04:15.959Z,0.57
2023-10-04T00:06:42.835Z,0.50
2023-10-04T00:09:11.063Z,0.40
2023-10-04T00:11:39.107Z,0.43
2023-10-04T00:14:06.365Z,0.77
2023-10-04T00:16:33.842Z,0.60
2023-10-04T00:19:01.124Z,0.52
2023-10-04T00:21:27.868Z,0.20
2023-10-04T00:23:54.646Z,0.57
2023-10-04T00:26:21.380Z,0.60
2023-10-04T00:28:49.777Z,0.63
2023-10-04T00:31:16.642Z,0.93
2023-10-04T00:33:44.489Z,0.32
2023-10-04T00:36:14.388Z,0.80
2023-10-04T00:38:41.688Z,0.50
2023-10-04T00:41:09.922Z,0.90
2023-10-04T00:43:52.496Z,0.47
2023-10-04T00:46:23.446Z,1.05
2023-10-04T00:48:51.021Z,0.65
2023-10-04T00:51:23.598Z,0.55
2023-10-04T00:53:51.566Z,0.30
2023-10-04T00:56:18.386Z,0.32
2023-10-04T00:58:46.977Z,0.60
2023-10-04T01:01:15.440Z,0.82
2023-10-04T01:03:42.790Z,0.60
2023-10-04T01:06:10.559Z,0.90
2023-10-04T01:08:38.597Z,0.40
2023-10-04T01:11:07.371Z,0.50
2023-10-04T01:13:34.286Z,0.57
2023-10-04T01:16:01.058Z,0.40
2023-10-04T01:18:30.640Z,0.63
2023-10-04T01:20:57.445Z,0.63
2023-10-04T01:23:24.163Z,0.50
2023-10-04T01:25:50.850Z,0.60
2023-10-04T01:28:19.230Z,0.30
2023-10-04T01:30:49.997Z,0.43
2023-10-04T01:33:17.579Z,0.30
2023-10-04T01:35:46.885Z,0.47
2023-10-04T01:38:14.884Z,0.30
2023-10-04T01:40:44.158Z,0.40
2023-10-04T01:43:17.544Z,0.40
2023-10-04T01:45:54.422Z,0.45
2023-10-04T01:48:21.542Z,0.43
2023-10-04T01:50:49.748Z,0.43
2023-10-04T01:53:17.044Z,0.60
2023-10-04T01:55:43.864Z,0.20
2023-10-04T01:58:11.800Z,0.40
2023-10-04T02:00:38.668Z,0.57
2023-10-04T02:03:06.182Z,0.50
2023-10-04T02:05:38.080Z,0.55
2023-10-04T02:08:08.845Z,0.50
2023-10-04T02:10:36.341Z,0.55
2023-10-04T02:13:07.887Z,0.32
2023-10-04T02:15:38.983Z,0.75
2023-10-04T02:18:06.061Z,0.40
2023-10-04T02:20:34.972Z,0.40
2023-10-04T02:23:04.383Z,0.60
2023-10-04T02:25:31.129Z,0.20
2023-10-04T02:28:04.993Z,0.52
2023-10-04T02:30:31.715Z,0.57
2023-10-04T02:32:58.742Z,0.52
2023-10-04T02:35:25.711Z,0.40
2023-10-04T02:37:55.685Z,0.60
2023-10-04T02:40:23.338Z,0.30
2023-10-04T02:42:54.909Z,0.25
2023-10-04T02:45:25.763Z,0.32
2023-10-04T02:47:54.725Z,0.50
2023-10-04T02:50:24.084Z,0.35
2023-10-04T02:52:51.726Z,0.40
2023-10-04T02:55:20.406Z,0.30
2023-10-04T02:57:51.044Z,0.50
2023-10-04T03:00:22.624Z,0.35
2023-10-04T03:02:54.356Z,0.32
2023-10-04T03:05:29.913Z,0.50
2023-10-04T03:07:57.862Z,0.30
2023-10-04T03:10:25.802Z,0.60
2023-10-04T03:13:00.449Z,0.88
2023-10-04T03:15:31.229Z,1.13
2023-10-04T03:17:59.288Z,0.70
2023-10-04T03:20:31.471Z,0.50
2023-10-04T03:23:03.466Z,0.52
2023-10-04T03:25:30.344Z,0.50
2023-10-04T03:27:58.167Z,0.40
2023-10-04T03:30:25.744Z,0.45
2023-10-04T03:32:57.220Z,0.60
2023-10-04T03:35:27.886Z,0.80
2023-10-04T03:37:59.681Z,1.00
2023-10-04T03:40:35.993Z,0.40
2023-10-04T03:43:08.166Z,0.65
2023-10-04T03:45:40.880Z,0.40
2023-10-04T03:48:16.437Z,0.70
2023-10-04T03:50:51.400Z,0.43
2023-10-04T03:53:22.697Z,0.63
2023-10-04T03:55:51.261Z,0.77
2023-10-04T03:58:21.640Z,0.80
2023-10-04T04:00:50.816Z,0.40
2023-10-04T04:03:18.040Z,0.50
2023-10-04T04:05:45.628Z,0.50
2023-10-04T04:08:14.166Z,0.70
2023-10-04T04:10:41.486Z,0.52
2023-10-04T04:13:08.348Z,0.65
2023-10-04T04:15:36.529Z,0.88
2023-10-04T04:18:14.800Z,0.60
2023-10-04T04:20:42.651Z,0.70
2023-10-04T04:23:11.842Z,0.70
2023-10-04T04:25:39.342Z,0.60
2023-10-04T04:28:08.764Z,0.57
2023-10-04T04:30:36.761Z,0.73
2023-10-04T04:33:08.676Z,0.60
2023-10-04T04:35:38.622Z,1.10
2023-10-04T04:38:18.298Z,1.13
2023-10-04T04:40:48.020Z,1.10
2023-10-04T04:43:19.275Z,0.98
2023-10-04T04:45:51.465Z,0.95
2023-10-04T04:48:27.616Z,1.05
2023-10-04T04:51:13.697Z,0.80
2023-10-04T04:53:47.400Z,1.05
2023-10-04T04:56:18.221Z,0.77
2023-10-04T04:58:49.062Z,1.00
2023-10-04T05:01:17.424Z,1.00
2023-10-04T05:03:51.985Z,0.90
2023-10-04T05:06:23.912Z,1.10
2023-10-04T05:08:52.192Z,1.20
2023-10-04T05:11:19.105Z,1.15
2023-10-04T05:13:46.326Z,0.77
2023-10-04T05:16:13.264Z,0.95
2023-10-04T05:18:40.399Z,0.88
2023-10-04T05:21:07.437Z,0.73
2023-10-04T05:23:34.260Z,0.90
2023-10-04T05:26:01.160Z,0.80
2023-10-04T05:28:31.035Z,0.90
2023-10-04T05:30:58.550Z,1.10
2023-10-04T05:33:25.327Z,0.75
2023-10-04T05:35:54.414Z,1.15
2023-10-04T05:38:22.024Z,1.10
2023-10-04T05:40:48.815Z,1.10
2023-10-04T05:43:17.364Z,1.00
2023-10-04T05:45:45.092Z,1.15
2023-10-04T05:48:13.396Z,0.80
2023-10-04T05:50:41.103Z,1.05
2023-10-04T05:53:09.311Z,0.80
2023-10-04T05:55:37.454Z,0.60
2023-10-04T05:58:08.894Z,0.90
2023-10-04T06:00:43.511Z,0.70
2023-10-04T06:03:14.583Z,0.80
2023-10-04T06:05:42.543Z,0.55
2023-10-04T06:08:19.458Z,0.90
2023-10-04T06:10:54.731Z,1.00
2023-10-04T06:13:24.614Z,1.10
2023-10-04T06:15:58.009Z,1.15
2023-10-04T06:18:30.589Z,0.63
2023-10-04T06:21:00.532Z,0.73
2023-10-04T06:23:27.927Z,1.00
2023-10-04T06:25:54.986Z,1.45
2023-10-04T06:28:22.193Z,0.70
2023-10-04T06:30:51.795Z,0.57
2023-10-04T06:33:20.080Z,0.68
2023-10-04T06:35:47.519Z,0.70
2023-10-04T06:38:15.239Z,0.98
2023-10-04T06:40:43.710Z,0.60
2023-10-04T06:43:11.599Z,0.82
2023-10-04T06:45:40.969Z,1.05
2023-10-04T06:48:08.703Z,1.02
2023-10-04T06:50:37.484Z,0.80
2023-10-04T06:53:05.305Z,0.55
2023-10-04T06:55:34.372Z,0.40
2023-10-04T06:58:02.001Z,0.63
2023-10-04T07:00:31.838Z,1.10
2023-10-04T07:03:00.874Z,1.10
2023-10-04T07:05:36.738Z,0.93
2023-10-04T07:08:05.646Z,0.80
2023-10-04T07:10:32.782Z,0.40
2023-10-04T07:13:01.302Z,0.63
2023-10-04T07:15:29.429Z,0.70
2023-10-04T07:17:56.861Z,0.90
2023-10-04T07:20:25.872Z,0.40
2023-10-04T07:23:18.320Z,0.80
2023-10-04T07:28:17.746Z,0.52
2023-10-04T07:30:45.208Z,0.73
2023-10-04T07:33:12.416Z,0.70
2023-10-04T07:35:39.637Z,0.38
2023-10-04T07:38:07.326Z,0.55
2023-10-04T07:40:34.851Z,0.80
2023-10-04T07:43:02.995Z,0.77
2023-10-04T07:45:31.341Z,0.60
2023-10-04T07:47:58.813Z,0.30
2023-10-04T07:50:27.027Z,0.70
2023-10-04T07:53:05.652Z,0.68
2023-10-04T07:55:34.192Z,0.82
2023-10-04T07:58:07.554Z,0.80
2023-10-04T08:00:39.632Z,0.73
2023-10-04T08:03:08.253Z,0.70
2023-10-04T08:05:37.061Z,0.80
2023-10-04T08:08:06.515Z,0.80
2023-10-04T08:10:35.984Z,0.82
2023-10-04T08:13:05.008Z,0.63
2023-10-04T08:15:33.617Z,1.02
2023-10-04T08:18:01.114Z,0.82
2023-10-04T08:20:30.881Z,0.95
2023-10-04T08:22:59.093Z,0.50
2023-10-04T08:25:28.707Z,0.93
2023-10-04T08:27:56.620Z,0.52
2023-10-04T08:30:24.076Z,0.60
2023-10-04T08:32:52.957Z,1.17
2023-10-04T08:35:25.123Z,0.90
2023-10-04T08:37:56.238Z,0.70
2023-10-04T08:40:24.503Z,0.90
2023-10-04T08:42:52.513Z,0.73
2023-10-04T08:45:21.177Z,0.60
2023-10-04T08:47:52.815Z,0.60
2023-10-04T08:50:41.853Z,0.55
2023-10-04T08:53:42.545Z,0.70
2023-10-04T08:56:13.138Z,0.73
2023-10-04T08:58:47.315Z,1.00
2023-10-04T09:01:17.101Z,0.75
2023-10-04T09:03:46.000Z,0.55
2023-10-04T09:06:18.155Z,0.85
2023-10-04T09:08:47.937Z,0.93
2023-10-04T09:11:18.446Z,0.70
2023-10-04T09:13:51.153Z,0.70
2023-10-04T09:16:23.921Z,0.75
2023-10-04T09:19:08.363Z,0.70
2023-10-04T09:21:38.294Z,1.00
2023-10-04T09:24:10.469Z,0.90
2023-10-04T09:26:38.690Z,0.43
2023-10-04T09:29:06.307Z,1.13
2023-10-04T09:31:47.775Z,0.50
2023-10-04T09:34:15.153Z,0.63
2023-10-04T09:36:43.383Z,0.88
2023-10-04T09:39:14.849Z,0.77
2023-10-04T09:41:42.890Z,0.63
2023-10-04T09:44:27.190Z,0.60
2023-10-04T09:46:56.068Z,0.55
2023-10-04T09:49:23.544Z,0.65
2023-10-04T09:51:51.632Z,0.80
2023-10-04T09:54:18.757Z,0.30
2023-10-04T09:56:50.322Z,0.90
2023-10-04T09:59:20.189Z,1.58
2023-10-04T10:01:57.717Z,0.80
2023-10-04T10:04:28.744Z,0.80
2023-10-04T10:07:16.785Z,0.60
2023-10-04T10:10:11.854Z,0.98
2023-10-04T10:12:44.690Z,0.80
2023-10-04T10:15:14.397Z,0.80
2023-10-04T10:17:44.374Z,0.85
2023-10-04T10:20:12.302Z,0.80
2023-10-04T10:22:58.706Z,0.55
2023-10-04T10:25:34.653Z,0.35
2023-10-04T10:30:32.580Z,0.60
2023-10-04T10:33:00.610Z,0.45
2023-10-04T10:36:00.255Z,0.50
2023-10-04T10:38:31.428Z,1.13
2023-10-04T10:40:58.321Z,1.00
2023-10-04T10:43:25.032Z,0.55
2023-10-04T10:45:52.277Z,0.80
2023-10-04T10:48:31.669Z,0.43
2023-10-04T10:50:58.603Z,0.73
2023-10-04T10:53:25.425Z,0.77
2023-10-04T10:55:52.252Z,0.80
2023-10-04T10:58:19.421Z,0.47
2023-10-04T11:00:47.398Z,0.77
2023-10-04T11:03:14.529Z,0.70
2023-10-04T11:05:42.914Z,0.73
2023-10-04T11:08:13.616Z,0.43
2023-10-04T11:10:41.471Z,0.30
2023-10-04T11:13:11.227Z,0.55
2023-10-04T11:15:38.193Z,0.93
2023-10-04T11:18:07.719Z,0.60
2023-10-04T11:20:37.470Z,0.57
2023-10-04T11:23:04.369Z,0.80
2023-10-04T11:25:32.667Z,0.63
2023-10-04T11:28:00.140Z,0.52
2023-10-04T11:30:28.926Z,0.60
2023-10-04T11:32:59.278Z,0.70
2023-10-04T11:35:36.004Z,0.52
2023-10-04T11:38:07.549Z,0.80
2023-10-04T11:40:34.837Z,0.93
2023-10-04T11:43:03.290Z,0.57
2023-10-04T11:45:32.967Z,0.50
2023-10-04T11:48:06.915Z,0.45
2023-10-04T11:50:47.989Z,0.50
2023-10-04T11:53:29.447Z,0.90
2023-10-04T11:56:07.928Z,0.70
2023-10-04T11:58:48.658Z,0.50
2023-10-04T12:01:21.080Z,0.50
2023-10-04T12:03:48.156Z,0.50
2023-10-04T12:06:16.687Z,0.57
2023-10-04T12:08:43.809Z,0.65
2023-10-04T12:11:23.416Z,0.50
2023-10-04T12:13:51.059Z,0.50
2023-10-04T12:16:21.576Z,0.68
2023-10-04T12:18:48.715Z,0.75
2023-10-04T12:21:16.737Z,0.95
2023-10-04T12:23:43.900Z,0.40
2023-10-04T12:26:11.097Z,0.70
2023-10-04T12:28:38.591Z,0.88
2023-10-04T12:31:08.904Z,1.00
2023-10-04T12:33:36.704Z,0.50
2023-10-04T12:36:06.152Z,0.80
2023-10-04T12:38:33.645Z,0.70
2023-10-04T12:41:00.374Z,0.43
2023-10-04T12:43:27.520Z,0.75
2023-10-04T12:45:55.199Z,0.75
2023-10-04T12:48:22.986Z,0.95
2023-10-04T12:50:50.499Z,0.80
2023-10-04T12:53:17.901Z,0.65
2023-10-04T12:55:46.045Z,0.63
2023-10-04T12:58:12.768Z,0.95
2023-10-04T13:00:39.689Z,0.47
2023-10-04T13:03:06.567Z,0.75
2023-10-04T13:05:33.492Z,0.45
2023-10-04T13:08:00.154Z,0.88
2023-10-04T13:10:26.884Z,0.60
2023-10-04T13:12:53.729Z,0.68
2023-10-04T13:15:20.684Z,0.70
2023-10-04T13:17:47.808Z,0.63
2023-10-04T13:20:26.266Z,0.70
2023-10-04T13:22:54.932Z,1.00
2023-10-04T13:25:23.843Z,0.50
2023-10-04T13:27:50.922Z,0.57
2023-10-04T13:30:17.921Z,0.40
2023-10-04T13:32:51.967Z,0.38
2023-10-04T13:35:21.198Z,0.90
2023-10-04T13:37:53.349Z,1.05
2023-10-04T13:40:21.470Z,0.50
2023-10-04T13:42:49.762Z,0.57
2023-10-04T13:45:17.691Z,0.47
2023-10-04T13:47:45.644Z,0.43
2023-10-04T13:50:13.281Z,0.95
2023-10-04T13:52:41.232Z,0.68
2023-10-04T13:55:10.423Z,0.70
2023-10-04T13:57:39.570Z,0.73
2023-10-04T14:00:16.684Z,1.13
2023-10-04T14:02:44.410Z,0.98
2023-10-04T14:05:17.679Z,0.70
2023-10-04T14:07:44.825Z,1.00
2023-10-04T14:10:12.541Z,0.77
2023-10-04T14:12:39.313Z,0.77
2023-10-04T14:15:11.813Z,0.60
2023-10-04T14:17:39.830Z,0.52
2023-10-04T14:20:07.341Z,0.95
2023-10-04T14:22:35.665Z,0.50
2023-10-04T14:25:04.606Z,0.60
2023-10-04T14:27:31.438Z,0.70
2023-10-04T14:29:58.353Z,0.70
2023-10-04T14:32:25.118Z,0.50
2023-10-04T14:34:51.895Z,0.73
2023-10-04T14:37:19.938Z,0.63
2023-10-04T14:39:46.659Z,0.65
2023-10-04T14:42:14.443Z,0.80
2023-10-04T14:44:43.504Z,0.30
2023-10-04T14:47:10.400Z,0.43
2023-10-04T14:49:43.640Z,0.80
2023-10-04T14:52:10.455Z,0.63
2023-10-04T14:54:37.447Z,0.40
2023-10-04T14:57:04.161Z,0.43
2023-10-04T14:59:31.020Z,0.52
2023-10-04T15:01:58.034Z,0.52
2023-10-04T15:04:24.982Z,0.57
2023-10-04T15:06:51.928Z,0.73
2023-10-04T15:09:20.044Z,0.55
2023-10-04T15:11:46.801Z,0.90
2023-10-04T15:14:13.524Z,0.82
2023-10-04T15:16:40.405Z,1.08
2023-10-04T15:19:07.411Z,0.80
2023-10-04T15:21:34.283Z,0.82
2023-10-04T15:24:04.604Z,0.60
2023-10-04T15:26:32.774Z,0.60
2023-10-04T15:29:03.986Z,0.40
2023-10-04T15:31:30.902Z,0.45
2023-10-04T15:33:58.505Z,0.57
2023-10-04T15:36:26.670Z,0.70
2023-10-04T15:38:53.472Z,0.55
2023-10-04T15:41:22.718Z,0.50
2023-10-04T15:43:50.042Z,0.63
2023-10-04T15:46:16.911Z,1.05
2023-10-04T15:48:43.939Z,0.45
2023-10-04T15:51:10.859Z,0.70
2023-10-04T15:53:37.591Z,4.30
2023-10-04T15:56:04.714Z,4.40
2023-10-04T15:58:32.837Z,3.17
2023-10-04T16:01:01.954Z,2.45
2023-10-04T16:03:29.016Z,1.55
2023-10-04T16:05:56.046Z,1.08
2023-10-04T16:08:22.879Z,1.20
2023-10-04T16:10:49.696Z,1.00
2023-10-04T16:13:16.492Z,0.90
2023-10-04T16:15:43.907Z,0.90
2023-10-04T16:18:11.085Z,0.90
2023-10-04T16:20:38.072Z,0.82
2023-10-04T16:23:04.886Z,0.90
2023-10-04T16:25:31.698Z,0.95
2023-10-04T16:27:58.827Z,0.70
2023-10-04T16:30:26.632Z,0.60
2023-10-04T16:32:54.353Z,0.65
2023-10-04T16:35:21.820Z,0.68
2023-10-04T16:37:52.531Z,0.88
2023-10-04T16:40:21.020Z,0.70
2023-10-04T16:42:50.622Z,0.60
2023-10-04T16:45:18.921Z,0.60
2023-10-04T16:47:48.317Z,0.73
2023-10-04T16:50:18.368Z,0.60
2023-10-04T16:52:49.246Z,0.80
2023-10-04T16:55:16.285Z,0.75
2023-10-04T16:57:43.722Z,0.50
2023-10-04T17:00:11.650Z,0.50
2023-10-04T17:02:38.708Z,0.68
2023-10-04T17:05:06.641Z,0.70
2023-10-04T17:07:33.739Z,0.85
2023-10-04T17:10:00.625Z,0.57
2023-10-04T17:12:27.516Z,0.57
2023-10-04T17:14:54.328Z,0.95
2023-10-04T17:17:23.873Z,2.88
2023-10-04T17:19:50.760Z,4.35
2023-10-04T17:22:18.197Z,3.08
2023-10-04T17:24:45.497Z,2.72
2023-10-04T17:27:14.811Z,2.20
2023-10-04T17:29:43.021Z,2.15
2023-10-04T17:32:09.874Z,1.60
2023-10-04T17:34:36.601Z,1.27
2023-10-04T17:37:03.426Z,1.05
2023-10-04T17:39:31.173Z,0.73
2023-10-04T17:41:59.882Z,0.47
2023-10-04T17:44:29.363Z,0.75
2023-10-04T17:46:57.807Z,0.82
2023-10-04T17:49:25.609Z,0.63
2023-10-04T17:51:53.744Z,0.88
2023-10-04T17:54:21.131Z,0.80
2023-10-04T17:56:48.256Z,0.80
2023-10-04T17:59:15.571Z,0.57
2023-10-04T18:01:42.740Z,0.70
2023-10-04T18:04:10.248Z,0.60
2023-10-04T18:06:37.464Z,0.73
2023-10-04T18:09:08.285Z,0.82
2023-10-04T18:11:35.604Z,0.70
2023-10-04T18:14:04.893Z,0.93
2023-10-04T18:16:31.988Z,0.60
2023-10-04T18:18:59.167Z,0.60
2023-10-04T18:21:26.394Z,0.70
2023-10-04T18:23:53.083Z,0.82
2023-10-04T18:26:19.774Z,0.85
2023-10-04T18:28:47.244Z,0.60
2023-10-04T18:31:14.234Z,1.25
2023-10-04T18:33:41.309Z,6.38
2023-10-04T18:36:09.881Z,5.82
2023-10-04T18:38:36.597Z,5.18
2023-10-04T18:41:03.274Z,3.53
2023-10-04T18:43:30.024Z,2.33
2023-10-04T18:45:57.993Z,1.30
2023-10-04T18:48:24.850Z,1.27
2023-10-04T18:50:51.667Z,0.70
2023-10-04T18:53:19.209Z,1.05
2023-10-04T18:55:46.029Z,0.95
2023-10-04T18:58:15.037Z,0.75
2023-10-04T19:00:41.987Z,0.68
2023-10-04T19:03:09.975Z,1.25
2023-10-04T19:05:37.815Z,0.63
2023-10-04T19:08:05.224Z,0.60
2023-10-04T19:10:31.932Z,0.88
2023-10-04T19:13:01.808Z,1.20
2023-10-04T19:15:29.331Z,0.80
2023-10-04T19:17:56.309Z,0.50
2023-10-04T19:20:24.345Z,0.77
2023-10-04T19:22:51.114Z,0.85
2023-10-04T19:25:18.401Z,0.65
2023-10-04T19:27:52.981Z,0.77
2023-10-04T19:30:22.763Z,0.50
2023-10-04T19:32:49.691Z,1.20
2023-10-04T19:35:19.372Z,0.93
2023-10-04T19:37:46.185Z,0.80
2023-10-04T19:40:15.984Z,0.55
2023-10-04T19:42:43.078Z,0.88
2023-10-04T19:45:11.040Z,1.20
2023-10-04T19:47:38.954Z,0.80
2023-10-04T19:50:06.535Z,0.73
2023-10-04T19:52:34.369Z,0.63
2023-10-04T19:55:01.308Z,0.73
2023-10-04T19:57:30.029Z,0.82
2023-10-04T19:59:56.782Z,1.00
2023-10-04T20:02:23.551Z,0.90
2023-10-04T20:04:50.245Z,0.75
2023-10-04T20:07:17.074Z,0.80
2023-10-04T20:09:47.108Z,0.85
2023-10-04T20:12:15.153Z,0.90
2023-10-04T20:14:42.006Z,0.73
2023-10-04T20:17:11.622Z,0.70
2023-10-04T20:19:38.935Z,0.88
2023-10-04T20:22:05.867Z,0.70
2023-10-04T20:24:36.694Z,0.90
2023-10-04T20:27:03.545Z,0.70
2023-10-04T20:29:30.428Z,0.93
2023-10-04T20:31:57.142Z,1.15
2023-10-04T20:34:23.809Z,0.63
2023-10-04T20:36:50.708Z,0.70
2023-10-04T20:39:19.950Z,0.80
2023-10-04T20:41:46.803Z,0.50
2023-10-04T20:44:13.552Z,0.95
2023-10-04T20:46:40.300Z,0.60
2023-10-04T20:49:07.771Z,1.13
2023-10-04T20:51:34.682Z,0.73
2023-10-04T20:54:03.743Z,0.60
2023-10-04T20:56:32.032Z,0.82
2023-10-04T20:59:00.127Z,0.60
2023-10-04T21:01:29.872Z,0.70
2023-10-04T21:03:56.952Z,0.47
2023-10-04T21:06:23.723Z,0.73
2023-10-04T21:08:51.708Z,0.88
2023-10-04T21:11:18.865Z,0.70
2023-10-04T21:13:45.571Z,0.77
2023-10-04T21:16:12.348Z,0.75
2023-10-04T21:18:40.756Z,0.90
2023-10-04T21:21:07.926Z,0.80
2023-10-04T21:23:35.135Z,0.80
2023-10-04T21:26:01.955Z,0.80
2023-10-04T21:28:30.697Z,0.82
2023-10-04T21:31:07.058Z,0.88
2023-10-04T21:33:34.546Z,1.05
2023-10-04T21:36:10.702Z,0.80
2023-10-04T21:38:49.815Z,1.00
2023-10-04T21:41:17.326Z,0.80
2023-10-04T21:44:04.899Z,0.88
2023-10-04T21:46:39.366Z,0.80
2023-10-04T21:49:12.141Z,1.10
2023-10-04T21:51:54.454Z,1.00
2023-10-04T21:54:23.658Z,0.85
2023-10-04T21:56:53.287Z,0.93
2023-10-04T21:59:20.092Z,1.13
2023-10-04T22:01:48.398Z,0.65
2023-10-04T22:04:16.386Z,0.85
2023-10-04T22:06:43.275Z,0.50
2023-10-04T22:09:18.501Z,0.68
2023-10-04T22:11:50.203Z,0.80
2023-10-04T22:14:18.804Z,0.70
2023-10-04T22:16:45.648Z,0.80
2023-10-04T22:19:16.380Z,0.93
2023-10-04T22:21:45.444Z,0.73
2023-10-04T22:24:12.796Z,0.57
2023-10-04T22:26:39.991Z,0.73
2023-10-04T22:29:20.981Z,0.80
2023-10-04T22:31:57.871Z,0.60
2023-10-04T22:34:24.808Z,0.80
2023-10-04T22:36:51.674Z,0.73
2023-10-04T22:39:18.802Z,0.77
2023-10-04T22:41:45.704Z,0.65
2023-10-04T22:44:12.534Z,0.60
2023-10-04T22:46:39.929Z,0.82
2023-10-04T22:49:06.999Z,0.77
2023-10-04T22:51:34.048Z,0.70
2023-10-04T22:54:00.830Z,0.63
2023-10-04T22:56:27.847Z,0.98
2023-10-04T22:58:54.576Z,0.80
2023-10-04T23:01:26.887Z,0.63
2023-10-04T23:03:53.934Z,0.68
2023-10-04T23:06:23.014Z,0.80
2023-10-04T23:08:52.560Z,0.90
2023-10-04T23:11:22.082Z,0.70
2023-10-04T23:13:52.098Z,0.60
2023-10-04T23:16:21.692Z,0.75
2023-10-04T23:18:51.550Z,0.55
2023-10-04T23:21:25.330Z,0.50
2023-10-04T23:23:54.295Z,0.57
2023-10-04T23:26:23.710Z,0.80
2023-10-04T23:28:54.421Z,0.70
2023-10-04T23:31:25.960Z,0.80
2023-10-04T23:33:54.691Z,0.57
2023-10-04T23:36:22.317Z,0.93
2023-10-04T23:38:52.764Z,0.88
2023-10-04T23:41:25.905Z,0.90
2023-10-04T23:43:53.772Z,0.82
2023-10-04T23:46:32.223Z,0.57
2023-10-04T23:49:10.995Z,0.43
2023-10-04T23:51:40.096Z,0.80
2023-10-04T23:54:08.806Z,0.50
2023-10-04T23:56:40.473Z,0.57
2023-10-04T23:59:07.610Z,0.40
